createdAt,value
2022-11-29T00:09:36.305Z,-5.70
2022-11-29T00:19:41.331Z,-5.80
2022-11-29T00:29:44.914Z,-5.60
2022-11-29T00:39:49.772Z,-5.40
2022-11-29T00:49:53.185Z,-5.60
2022-11-29T00:59:57.980Z,-5.80
2022-11-29T01:10:01.406Z,-6.00
2022-11-29T01:20:09.385Z,-6.10
2022-11-29T01:30:13.565Z,-6.20
2022-11-29T01:40:18.694Z,-6.30
2022-11-29T01:50:22.457Z,-6.20
2022-11-29T02:00:27.446Z,-6.10
2022-11-29T02:10:48.228Z,-6.00
2022-11-29T02:21:19.886Z,-5.70
2022-11-29T02:32:03.250Z,-5.40
2022-11-29T02:42:55.747Z,-5.00
2022-11-29T02:53:09.683Z,-4.70
2022-11-29T03:03:22.726Z,-4.40
2022-11-29T03:13:42.028Z,-4.20
2022-11-29T03:23:51.192Z,-3.90
2022-11-29T03:34:05.122Z,-3.70
2022-11-29T03:44:14.816Z,-3.50
2022-11-29T03:54:24.200Z,-3.50
2022-11-29T04:05:18.102Z,-3.40
2022-11-29T04:16:09.198Z,-3.20
2022-11-29T04:26:53.441Z,-3.20
2022-11-29T04:37:30.005Z,-3.30
2022-11-29T04:47:53.784Z,-3.20
2022-11-29T04:58:04.948Z,-3.20
2022-11-29T05:08:28.819Z,-2.90
2022-11-29T05:18:59.665Z,-2.90
2022-11-29T05:29:07.728Z,-2.90
2022-11-29T05:39:32.464Z,-2.80
2022-11-29T05:49:47.149Z,-2.90
2022-11-29T05:59:52.687Z,-2.90
2022-11-29T06:10:04.856Z,-2.90
2022-11-29T06:20:28.626Z,-2.60
2022-11-29T06:30:54.205Z,-2.70
2022-11-29T06:41:02.225Z,-2.60
2022-11-29T06:51:14.325Z,-2.70
2022-11-29T07:01:27.687Z,-2.50
2022-11-29T07:11:33.869Z,-2.40
2022-11-29T07:21:52.742Z,-2.30
2022-11-29T07:32:09.418Z,-2.20
2022-11-29T07:42:22.384Z,-2.00
2022-11-29T07:52:27.353Z,-1.90
2022-11-29T08:02:31.563Z,-1.70
2022-11-29T08:12:36.682Z,-1.60
2022-11-29T08:22:40.471Z,-1.50
2022-11-29T08:32:51.117Z,-1.50
2022-11-29T08:42:58.897Z,-1.20
2022-11-29T08:53:21.025Z,-0.80
2022-11-29T09:03:42.478Z,-0.80
2022-11-29T09:13:51.358Z,-0.60
2022-11-29T09:23:59.217Z,-0.30
2022-11-29T09:34:04.676Z,0.10
2022-11-29T09:44:15.799Z,0.10
2022-11-29T09:54:32.709Z,0.40
2022-11-29T10:04:42.724Z,0.10
2022-11-29T10:14:55.906Z,0.20
2022-11-29T10:25:02.248Z,0.50
2022-11-29T10:35:15.243Z,1.00
2022-11-29T10:45:29.764Z,1.00
2022-11-29T10:55:41.884Z,1.00
2022-11-29T11:06:01.912Z,0.90
2022-11-29T11:16:17.370Z,0.70
2022-11-29T11:26:21.590Z,0.40
2022-11-29T11:36:28.543Z,0.60
2022-11-29T11:46:49.027Z,0.40
2022-11-29T11:56:54.161Z,0.30
2022-11-29T12:07:02.010Z,0.10
2022-11-29T12:17:20.256Z,-0.20
2022-11-29T12:27:23.989Z,-0.20
2022-11-29T12:37:37.049Z,-0.40
2022-11-29T12:47:52.461Z,-0.40
2022-11-29T12:58:07.901Z,-0.30
2022-11-29T13:08:52.732Z,-0.60
2022-11-29T13:19:06.404Z,-0.70
2022-11-29T13:29:17.239Z,-0.90
2022-11-29T13:39:39.684Z,-1.00
2022-11-29T13:49:58.581Z,-1.00
2022-11-29T14:00:03.997Z,-1.10
2022-11-29T14:10:26.375Z,-1.40
2022-11-29T14:20:59.171Z,-1.50
2022-11-29T14:31:03.582Z,-1.40
2022-11-29T14:41:24.521Z,-1.40
2022-11-29T14:51:31.730Z,-1.50
2022-11-29T15:01:38.233Z,-1.50
2022-11-29T15:11:52.086Z,-1.70
2022-11-29T15:22:09.942Z,-1.60
2022-11-29T15:32:19.149Z,-1.50
2022-11-29T15:42:25.310Z,-1.50
2022-11-29T15:52:36.445Z,-1.50
2022-11-29T16:02:48.449Z,-1.50
2022-11-29T16:12:55.635Z,-1.60
2022-11-29T16:23:15.367Z,-1.60
2022-11-29T16:33:24.024Z,-1.40
2022-11-29T16:43:58.918Z,-1.40
2022-11-29T16:54:23.938Z,-1.40
2022-11-29T17:04:28.734Z,-1.40
2022-11-29T17:14:33.409Z,-1.30
2022-11-29T17:24:44.945Z,-1.30
2022-11-29T17:34:51.403Z,-1.20
2022-11-29T17:44:56.324Z,-1.00
2022-11-29T17:54:59.730Z,-1.00
2022-11-29T18:05:05.229Z,-0.90
2022-11-29T18:15:09.832Z,-1.10
2022-11-29T18:25:37.657Z,-1.20
2022-11-29T18:35:38.103Z,-1.10
2022-11-29T18:45:43.037Z,-1.20
2022-11-29T18:55:47.058Z,-1.10
2022-11-29T19:05:55.178Z,-1.10
2022-11-29T19:15:58.786Z,-1.20
2022-11-29T19:26:08.377Z,-1.30
2022-11-29T19:36:15.587Z,-1.30
2022-11-29T19:46:22.844Z,-1.20
2022-11-29T19:56:27.222Z,-1.20
2022-11-29T20:06:32.746Z,-1.30
2022-11-29T20:16:38.060Z,-1.20
2022-11-29T20:26:45.636Z,-1.10
2022-11-29T20:37:21.148Z,-1.10
2022-11-29T20:47:28.806Z,-1.10
2022-11-29T20:57:32.270Z,-1.00
2022-11-29T21:07:37.982Z,-1.00
2022-11-29T21:17:42.517Z,-1.00
2022-11-29T21:27:48.373Z,-1.00
2022-11-29T21:37:56.332Z,-1.00
2022-11-29T21:48:02.567Z,-1.00
2022-11-29T21:58:07.019Z,-1.00
2022-11-29T22:08:11.884Z,-1.00
2022-11-29T22:18:15.513Z,-0.90
2022-11-29T22:28:20.359Z,-0.90
2022-11-29T22:38:23.849Z,-0.90
2022-11-29T22:48:28.609Z,-0.90
2022-11-29T22:58:32.264Z,-1.00
2022-11-29T23:08:38.702Z,-1.00
2022-11-29T23:18:42.891Z,-1.00
2022-11-29T23:28:50.178Z,-1.00
2022-11-29T23:38:53.916Z,-1.00
2022-11-29T23:48:58.936Z,-1.10
2022-11-29T23:59:02.574Z,-1.10
